Osceola Municipal Airport

About
Name: Osceola Municipal Airport
Identifier:  OEO/KOEO
Local Time:  25. Aug 04:33 CDT
Location
Flights per Day
0 flights
Distance: 1,182km (734mi)
Punctuality
0% (0 flights per day delayed)
Delay Average: 23 minutes
Current Weather
 17 C (Humidity: 77%)
  8kt (14km/h / 9mph) from 140°
  Broken clouds at 5,000 feet (1,524 meter)
  16km (10 mi.)
 METAR KOEO 250915Z AUTO 14008KT 10SM BKN050 17/13 A3012 RMK AO2 T01700130

Current Flights

Departures
Number Departure To Airline
Arrivals
Number Arrival From Airline

Current Delays

Departures
N/A
Arrivals
N/A

Destinations

Top Destinations
Airport Flights
per week
Seats
per week
  Bismarck (BIS) 0 - 0 0
  Holdrege () 0 - 0 0
  Eagle River (EGV) 0 - 0 0
  Waukesha (UES) 0 - 0 0
  Rifle (RIL) 0 - 0 0
  Chicago (MDW) 0 - 0 0
  Drummond Island (DRE) 0 - 0 0
  Denver (APA) 0 - 0 0
  Chicago (PWK) 0 - 0 0

Airlines & Planes

Top Airlines
Airline Flights
per Day
Seats
per Day
Jet Charter Inc ( Franklin Lakes Nj ) 0 -
Nordwind Airlines 0 -
  Centennial Airlines 0 -
Top Plane Types
Model Flights Seats
Piper PA28R-201T Turbo Arrow IV 0.1/day - 0
Piper PA-46-350P Malibu Mirage 0.1/day - 0
Pilatus PC-12 0.1/day - 0
Beech E90 King Air 0.0/day - 0
Cirrus SR22 0.0/day - 0